Time;durP1;ratioP1;P1;durP2;ratioP2;P2;SDS_P1;SDS_P2;PMS_P1;PMS_P2;Temp;Humidity;BMP_temperature;BMP_pressure;BME280_temperature;BME280_humidity;BME280_pressure;Samples;Min_cycle;Max_cycle;Signal;HPM_P1;HPM_P2
2022/05/20 00:00:46;;;;;;;36.38;18.35;;;11.40;99.90;;;;;;5074820;28;20128;-77
2022/05/20 00:03:12;;;;;;;847.00;76.72;;;11.40;99.90;;;;;;5074211;28;20400;-76
2022/05/20 00:05:38;;;;;;;574.33;46.60;;;11.30;99.90;;;;;;5057140;28;20067;-76
2022/05/20 00:08:04;;;;;;;433.40;32.90;;;11.30;99.90;;;;;;5057163;28;20048;-76
2022/05/20 00:10:31;;;;;;;732.75;64.25;;;11.20;99.90;;;;;;5074568;28;20044;-76
2022/05/20 00:12:59;;;;;;;726.55;64.05;;;11.20;99.90;;;;;;5074580;28;20052;-75
2022/05/20 00:15:27;;;;;;;721.42;51.78;;;11.10;99.90;;;;;;5056705;28;20052;-76
2022/05/20 00:17:54;;;;;;;826.20;58.70;;;11.10;99.90;;;;;;5057032;28;20067;-78
2022/05/20 00:20:22;;;;;;;851.40;60.63;;;11.10;99.90;;;;;;5056803;28;20389;-77
2022/05/20 00:22:48;;;;;;;823.40;61.50;;;11.00;99.90;;;;;;5056789;28;20174;-77
2022/05/20 00:28:00;;;;;;;131.65;14.57;;;11.00;99.90;;;;;;5056735;28;20048;-76
2022/05/20 00:30:26;;;;;;;279.30;30.08;;;10.90;99.90;;;;;;5056819;28;20048;-76
2022/05/20 00:32:52;;;;;;;648.83;60.92;;;10.90;99.90;;;;;;5056713;28;20040;-76
2022/05/20 00:35:19;;;;;;;370.92;30.15;;;10.90;99.90;;;;;;5074241;28;20342;-76
2022/05/20 00:37:45;;;;;;;145.30;21.80;;;10.90;99.90;;;;;;5074212;28;20047;-76
2022/05/20 00:40:14;;;;;;;800.60;73.15;;;10.90;99.90;;;;;;5074013;28;20036;-75
2022/05/20 00:42:40;;;;;;;734.03;60.33;;;10.90;99.90;;;;;;5056565;28;20036;-76
2022/05/20 00:45:08;;;;;;;334.52;29.08;;;10.90;99.90;;;;;;5056443;28;20064;-76
2022/05/20 00:47:34;;;;;;;662.75;61.03;;;10.90;99.90;;;;;;5073947;28;20048;-79
2022/05/20 00:50:06;;;;;;;506.27;56.35;;;10.90;99.90;;;;;;5056473;28;20214;-76
2022/05/20 00:52:34;;;;;;;276.40;36.75;;;10.90;99.90;;;;;;5073901;28;20132;-77
2022/05/20 00:55:06;;;;;;;59.70;24.10;;;10.90;99.90;;;;;;5073697;28;20050;-79
2022/05/20 00:57:39;;;;;;;86.13;34.95;;;11.00;99.90;;;;;;5073861;28;20044;-75
2022/05/20 01:00:18;;;;;;;48.42;28.70;;;11.10;99.90;;;;;;5073686;28;20393;-77
2022/05/20 01:02:48;;;;;;;52.72;31.10;;;11.10;99.90;;;;;;5056351;28;20119;-76
2022/05/20 01:05:19;;;;;;;34.92;24.40;;;11.10;99.90;;;;;;5073345;28;20055;-78
2022/05/20 01:07:45;;;;;;;43.65;30.40;;;11.20;99.90;;;;;;5073620;28;20044;-78
2022/05/20 01:10:11;;;;;;;35.80;26.13;;;11.20;99.90;;;;;;5055917;28;20090;-77
2022/05/20 01:12:37;;;;;;;76.82;35.92;;;11.30;99.90;;;;;;5055936;28;20040;-76
2022/05/20 01:15:07;;;;;;;50.05;32.08;;;11.40;99.90;;;;;;5072287;28;20044;-76
2022/05/20 01:17:33;;;;;;;42.60;29.08;;;11.40;99.90;;;;;;5055978;28;20101;-77
2022/05/20 01:19:59;;;;;;;69.35;39.63;;;11.40;99.90;;;;;;5055596;28;20123;-76
2022/05/20 01:22:40;;;;;;;60.35;36.03;;;11.40;99.90;;;;;;5073373;28;20334;-76
2022/05/20 01:25:08;;;;;;;51.83;33.90;;;11.40;99.90;;;;;;5055209;28;20080;-76
2022/05/20 01:27:36;;;;;;;51.67;32.90;;;11.40;99.90;;;;;;5055767;28;20183;-75
2022/05/20 01:30:05;;;;;;;44.63;32.42;;;11.40;99.90;;;;;;5073068;28;20079;-77
2022/05/20 01:32:31;;;;;;;57.92;36.70;;;11.40;99.90;;;;;;5055337;28;20048;-77
2022/05/20 01:34:57;;;;;;;59.28;37.25;;;11.40;99.90;;;;;;5055476;28;20044;-79
2022/05/20 01:37:22;;;;;;;41.22;30.15;;;11.50;99.90;;;;;;5073021;28;20442;-77
2022/05/20 01:39:48;;;;;;;36.90;26.90;;;11.50;99.90;;;;;;5072960;28;20127;-77
2022/05/20 01:42:24;;;;;;;38.28;27.88;;;11.50;99.90;;;;;;5072818;28;20118;-75
2022/05/20 01:44:57;;;;;;;70.65;34.95;;;11.50;99.90;;;;;;5055244;28;20059;-75
2022/05/20 01:47:46;;;;;;;32.95;25.60;;;11.40;99.90;;;;;;5072975;28;20052;-76
2022/05/20 01:50:25;;;;;;;46.55;29.73;;;11.40;99.90;;;;;;5072054;28;20463;-77
2022/05/20 01:53:15;;;;;;;38.88;29.65;;;11.40;99.90;;;;;;5072746;28;20043;-78
2022/05/20 01:55:50;;;;;;;88.45;40.88;;;11.30;99.90;;;;;;5072636;28;20446;-76
2022/05/20 01:58:25;;;;;;;47.92;29.80;;;11.30;99.90;;;;;;5072636;28;20127;-77
2022/05/20 02:00:55;;;;;;;49.00;32.35;;;11.20;99.90;;;;;;5072460;28;20355;-77
2022/05/20 02:03:24;;;;;;;;;;;11.20;99.90;;;;;;5073070;28;20047;-76
2022/05/20 02:06:15;;;;;;;755.40;83.85;;;11.10;99.90;;;;;;5055130;28;20252;-78
2022/05/20 02:09:01;;;;;;;820.58;102.03;;;11.10;99.90;;;;;;5072518;28;20520;-76
2022/05/20 02:11:46;;;;;;;968.35;82.45;;;11.00;99.90;;;;;;5072349;28;20108;-77
2022/05/20 02:14:25;;;;;;;357.73;49.72;;;10.90;99.90;;;;;;5072519;28;20124;-76
2022/05/20 02:17:03;;;;;;;64.22;33.35;;;10.80;99.90;;;;;;5072426;28;20127;-76
2022/05/20 02:19:37;;;;;;;37.08;27.00;;;10.80;99.90;;;;;;5054942;28;20076;-77
2022/05/20 02:22:07;;;;;;;307.42;44.53;;;10.70;99.90;;;;;;5054780;28;20044;-77
2022/05/20 02:24:34;;;;;;;;;;;10.70;99.90;;;;;;5066732;28;20045;-77
2022/05/20 02:27:04;;;;;;;825.40;77.68;;;10.70;99.90;;;;;;5052146;28;19925;-77
2022/05/20 02:29:39;;;;;;;992.93;96.13;;;10.70;99.90;;;;;;5034553;28;20130;-76
2022/05/20 02:32:13;;;;;;;897.85;90.90;;;10.60;99.90;;;;;;5034587;28;20127;-77
2022/05/20 02:34:39;;;;;;;700.72;72.63;;;10.60;99.90;;;;;;5034713;28;20052;-76
2022/05/20 02:37:23;;;;;;;846.05;96.25;;;10.60;99.90;;;;;;5034401;28;20049;-76
2022/05/20 02:39:49;;;;;;;463.75;64.93;;;10.50;99.90;;;;;;5052186;28;20108;-77
2022/05/20 02:42:15;;;;;;;49.05;28.73;;;10.40;99.90;;;;;;5052226;28;20485;-77
2022/05/20 02:44:41;;;;;;;181.20;28.85;;;10.40;99.90;;;;;;5052376;28;20052;-76
2022/05/20 02:47:07;;;;;;;254.32;44.95;;;10.40;99.90;;;;;;5051890;28;20037;-75
2022/05/20 02:49:33;;;;;;;274.08;37.20;;;10.40;99.90;;;;;;5052017;28;20505;-76
2022/05/20 02:51:59;;;;;;;44.88;28.35;;;10.40;99.90;;;;;;5034584;28;20125;-76
2022/05/20 02:54:25;;;;;;;50.78;21.17;;;10.40;99.90;;;;;;5051734;28;20076;-78
2022/05/20 02:56:50;;;;;;;178.35;46.85;;;10.40;99.90;;;;;;5051999;28;20158;-76
2022/05/20 03:04:47;;;;;;;649.75;69.45;;;10.40;99.90;;;;;;5052019;28;20048;-77
2022/05/20 03:07:13;;;;;;;279.58;29.60;;;10.30;99.90;;;;;;5051906;28;20442;-76
2022/05/20 03:09:39;;;;;;;625.53;77.70;;;10.30;99.90;;;;;;5051843;28;20082;-75
2022/05/20 03:12:08;;;;;;;737.70;83.60;;;10.30;99.90;;;;;;5051775;28;20128;-76
2022/05/20 03:14:34;;;;;;;915.25;97.68;;;10.30;99.90;;;;;;5051781;28;20037;-76
2022/05/20 03:17:01;;;;;;;314.13;67.85;;;10.20;99.90;;;;;;5033971;28;20362;-76
2022/05/20 03:19:30;;;;;;;802.03;95.57;;;10.20;99.90;;;;;;5051879;28;20041;-75
2022/05/20 03:22:01;;;;;;;145.75;32.85;;;10.20;99.90;;;;;;5034339;28;20502;-76
2022/05/20 03:24:27;;;;;;;559.55;67.63;;;10.10;99.90;;;;;;5056290;28;20083;-77
2022/05/20 03:26:53;;;;;;;210.77;44.90;;;10.10;99.90;;;;;;5071605;28;20049;-77
2022/05/20 03:29:19;;;;;;;200.77;42.10;;;10.10;99.90;;;;;;5073080;28;20052;-76
2022/05/20 03:31:46;;;;;;;250.43;42.63;;;10.20;99.90;;;;;;5056446;28;20045;-78
2022/05/20 03:34:14;;;;;;;821.28;82.32;;;10.10;99.90;;;;;;5054176;28;20048;-76
2022/05/20 03:36:45;;;;;;;529.05;51.15;;;10.10;99.90;;;;;;5071737;28;20098;-75
2022/05/20 03:39:14;;;;;;;318.23;34.10;;;10.10;99.90;;;;;;5057854;28;20044;-76
2022/05/20 03:41:40;;;;;;;386.48;60.13;;;10.10;99.90;;;;;;5074872;28;20036;-76
2022/05/20 03:44:08;;;;;;;298.67;47.33;;;10.10;99.90;;;;;;5057510;28;20050;-77
2022/05/20 03:46:41;;;;;;;186.23;36.50;;;10.00;99.90;;;;;;5074930;28;20040;-77
2022/05/20 03:49:08;;;;;;;90.43;31.02;;;10.00;99.90;;;;;;5075228;28;20044;-76
2022/05/20 03:51:35;;;;;;;202.93;51.38;;;10.00;99.90;;;;;;5074684;28;20048;-76
2022/05/20 03:54:01;;;;;;;471.67;70.80;;;10.00;99.90;;;;;;5057234;28;20040;-76
2022/05/20 03:56:27;;;;;;;96.90;31.85;;;10.10;99.90;;;;;;5057001;28;20120;-79
2022/05/20 03:58:53;;;;;;;68.53;28.98;;;10.10;99.90;;;;;;5075028;28;20140;-77
2022/05/20 04:04:03;;;;;;;28.25;23.38;;;10.10;99.90;;;;;;5074550;28;20109;-76
2022/05/20 04:06:29;;;;;;;16.40;14.70;;;10.10;99.90;;;;;;5057214;28;20123;-77
2022/05/20 04:08:55;;;;;;;17.08;14.15;;;10.10;99.90;;;;;;5057197;28;20418;-76
2022/05/20 04:11:21;;;;;;;16.90;13.50;;;10.10;99.90;;;;;;5057032;28;20048;-75
2022/05/20 04:13:47;;;;;;;11.52;10.43;;;10.10;99.90;;;;;;5074447;28;20043;-76
2022/05/20 04:16:14;;;;;;;15.85;13.93;;;10.00;99.90;;;;;;5073404;28;20350;-76
2022/05/20 04:18:41;;;;;;;17.77;14.20;;;10.00;99.90;;;;;;5057139;28;20090;-77
2022/05/20 04:21:08;;;;;;;23.67;17.83;;;10.00;99.90;;;;;;5074084;28;20463;-79
2022/05/20 04:23:34;;;;;;;22.63;17.08;;;10.00;99.90;;;;;;5057060;28;20040;-76
2022/05/20 04:26:00;;;;;;;76.78;23.75;;;10.00;99.90;;;;;;5056706;28;20446;-77
2022/05/20 04:28:26;;;;;;;163.77;34.53;;;10.00;99.90;;;;;;5054410;28;20053;-76
2022/05/20 04:30:58;;;;;;;346.25;46.72;;;10.00;99.90;;;;;;5036901;28;20107;-76
2022/05/20 04:33:25;;;;;;;517.97;77.95;;;10.00;99.90;;;;;;5054494;28;20044;-75
2022/05/20 04:35:51;;;;;;;149.35;30.52;;;10.10;99.90;;;;;;5054267;28;20045;-76
2022/05/20 04:38:17;;;;;;;172.43;29.92;;;10.10;99.90;;;;;;5033821;28;20504;-75
2022/05/20 04:40:42;;;;;;;198.00;35.17;;;10.10;99.90;;;;;;5054021;28;20049;-76
2022/05/20 04:48:37;;;;;;;254.93;41.47;;;10.20;99.90;;;;;;5053804;28;20409;-76
2022/05/20 04:51:03;;;;;;;195.60;32.35;;;10.20;99.90;;;;;;5036637;28;20084;-75
2022/05/20 04:56:13;;;;;;;119.45;41.70;;;10.30;99.90;;;;;;5036172;28;20115;-75
2022/05/20 04:58:39;;;;;;;199.75;58.63;;;10.40;99.90;;;;;;5053788;28;20036;-76
2022/05/20 05:01:04;;;;;;;362.88;57.53;;;10.50;99.90;;;;;;5053799;28;20049;-77
2022/05/20 05:03:30;;;;;;;489.23;81.22;;;10.60;99.90;;;;;;5036311;28;20128;-78
2022/05/20 05:05:57;;;;;;;442.58;71.97;;;10.70;99.90;;;;;;5053829;28;20353;-76
2022/05/20 05:08:22;;;;;;;335.42;59.03;;;10.80;99.90;;;;;;5035989;28;20084;-76
2022/05/20 05:10:48;;;;;;;496.08;79.80;;;10.90;99.90;;;;;;5036118;28;20079;-78
2022/05/20 05:13:15;;;;;;;298.13;53.38;;;11.00;99.90;;;;;;5053466;28;20045;-76
2022/05/20 05:15:44;;;;;;;316.92;61.88;;;11.00;99.90;;;;;;5053339;28;20040;-77
2022/05/20 05:18:14;;;;;;;204.10;40.37;;;11.20;99.90;;;;;;5036032;28;20044;-75
2022/05/20 05:20:46;;;;;;;160.13;41.72;;;11.20;99.90;;;;;;5053432;28;20084;-78
2022/05/20 05:23:13;;;;;;;255.43;59.72;;;11.30;99.90;;;;;;5053372;28;20094;-75
2022/05/20 05:25:39;;;;;;;94.47;36.60;;;11.40;99.90;;;;;;5068570;28;20052;-76
2022/05/20 05:28:05;;;;;;;164.60;43.97;;;11.50;99.90;;;;;;5056845;28;20086;-76
2022/05/20 05:30:31;;;;;;;208.93;51.50;;;11.60;99.90;;;;;;5053616;28;20450;-76
2022/05/20 05:32:57;;;;;;;210.48;48.90;;;11.70;99.90;;;;;;5074109;28;20736;-77
2022/05/20 05:35:26;;;;;;;136.68;42.83;;;11.80;99.90;;;;;;5055978;28;20049;-78
2022/05/20 05:37:52;;;;;;;64.50;36.00;;;11.90;99.90;;;;;;5073533;28;20083;-77
2022/05/20 05:40:21;;;;;;;52.67;33.10;;;12.00;99.90;;;;;;5073939;28;20044;-76
2022/05/20 05:42:48;;;;;;;51.60;34.05;;;12.20;99.90;;;;;;5073754;28;20040;-76
2022/05/20 05:45:19;;;;;;;43.40;30.55;;;12.40;99.90;;;;;;5073832;28;20098;-74
2022/05/20 05:48:08;;;;;;;41.85;31.75;;;12.50;99.90;;;;;;5073432;28;20053;-75
2022/05/20 05:50:38;;;;;;;54.33;34.83;;;12.80;99.90;;;;;;5072610;28;20040;-76
2022/05/20 05:53:11;;;;;;;41.42;31.77;;;13.00;99.90;;;;;;5072852;28;20088;-77
2022/05/20 05:55:38;;;;;;;49.05;31.95;;;13.10;99.90;;;;;;5072539;28;20055;-74
2022/05/20 05:58:04;;;;;;;41.20;28.08;;;13.10;99.90;;;;;;5072713;28;20111;-75
2022/05/20 06:00:30;;;;;;;38.90;29.63;;;13.20;99.90;;;;;;5051383;28;20460;-78
2022/05/20 06:02:55;;;;;;;40.10;28.73;;;13.30;99.90;;;;;;5054941;28;20048;-77
2022/05/20 06:05:21;;;;;;;33.15;23.20;;;13.40;99.90;;;;;;5055147;28;20048;-76
2022/05/20 06:07:48;;;;;;;32.17;24.75;;;13.60;99.90;;;;;;5072622;28;20048;-77
2022/05/20 06:10:14;;;;;;;29.85;21.63;;;13.70;99.90;;;;;;5069688;28;20051;-77
2022/05/20 06:12:40;;;;;;;27.08;20.23;;;13.90;99.90;;;;;;5055021;28;20075;-76
2022/05/20 06:15:17;;;;;;;29.70;18.98;;;14.00;99.90;;;;;;5072409;28;20056;-78
2022/05/20 06:17:43;;;;;;;22.20;18.00;;;14.00;99.90;;;;;;5035007;28;20191;-77
2022/05/20 06:20:09;;;;;;;22.10;16.52;;;14.10;99.90;;;;;;5052479;28;20055;-77
2022/05/20 06:22:35;;;;;;;22.55;15.88;;;14.20;99.90;;;;;;5056023;28;20041;-76
2022/05/20 06:25:01;;;;;;;19.17;14.43;;;14.40;99.90;;;;;;5062682;28;20103;-76
2022/05/20 06:27:27;;;;;;;20.95;15.05;;;14.60;99.90;;;;;;5052052;28;20049;-76
2022/05/20 06:29:53;;;;;;;21.08;16.13;;;14.80;99.90;;;;;;5034574;28;20139;-76
2022/05/20 06:32:19;;;;;;;18.02;13.77;;;15.00;99.90;;;;;;5052209;28;20425;-76
2022/05/20 06:40:18;;;;;;;19.17;14.63;;;15.50;99.90;;;;;;5068852;28;20056;-74
2022/05/20 06:42:44;;;;;;;19.30;10.65;;;15.70;99.90;;;;;;5057051;28;20133;-76
2022/05/20 06:45:12;;;;;;;13.75;9.63;;;16.00;99.90;;;;;;5052023;28;20044;-77
2022/05/20 06:47:39;;;;;;;14.15;8.65;;;16.20;99.90;;;;;;5051923;28;20049;-76
2022/05/20 06:50:06;;;;;;;16.58;11.20;;;16.20;99.90;;;;;;5034389;28;20041;-75
2022/05/20 06:52:32;;;;;;;12.98;8.20;;;16.10;99.90;;;;;;5034302;28;20055;-77
2022/05/20 06:54:58;;;;;;;15.98;7.97;;;16.00;99.90;;;;;;5031211;28;20040;-77
2022/05/20 06:57:24;;;;;;;13.77;8.15;;;16.00;99.90;;;;;;5051813;28;20167;-77
2022/05/20 06:59:51;;;;;;;13.90;8.32;;;16.00;99.90;;;;;;5051651;28;20044;-77
2022/05/20 07:02:17;;;;;;;13.02;8.07;;;16.10;99.90;;;;;;5051608;28;20080;-77
2022/05/20 07:04:43;;;;;;;13.40;8.30;;;16.20;99.90;;;;;;5051527;28;20145;-77
2022/05/20 07:07:09;;;;;;;11.35;6.95;;;16.40;99.90;;;;;;5051370;28;20369;-76
2022/05/20 07:09:35;;;;;;;13.18;8.93;;;16.50;99.90;;;;;;5034417;28;20407;-77
2022/05/20 07:12:01;;;;;;;18.50;8.55;;;16.70;99.90;;;;;;5033684;28;20045;-76
2022/05/20 07:14:27;;;;;;;11.13;7.22;;;16.90;99.90;;;;;;5055398;28;20120;-77
2022/05/20 07:16:54;;;;;;;13.82;8.63;;;17.00;99.90;;;;;;5037736;28;20458;-78
2022/05/20 07:19:21;;;;;;;8.43;5.88;;;17.10;99.90;;;;;;5037890;28;20051;-78
2022/05/20 07:21:46;;;;;;;13.70;7.78;;;17.20;99.90;;;;;;5037823;28;20469;-77
2022/05/20 07:24:12;;;;;;;10.38;6.80;;;17.20;99.90;;;;;;5040334;28;20044;-76
2022/05/20 07:26:39;;;;;;;10.45;7.30;;;17.20;99.90;;;;;;5075318;28;20040;-77
2022/05/20 07:29:06;;;;;;;13.32;8.40;;;17.10;99.90;;;;;;5074934;28;20466;-78
2022/05/20 07:31:32;;;;;;;10.23;6.97;;;17.00;99.90;;;;;;5074909;28;20051;-76
2022/05/20 07:33:57;;;;;;;9.60;5.72;;;16.90;99.90;;;;;;5075347;28;20048;-75
2022/05/20 07:36:23;;;;;;;9.75;6.75;;;16.80;99.90;;;;;;5057569;28;20102;-75
2022/05/20 07:38:50;;;;;;;8.75;6.78;;;16.70;99.90;;;;;;5075089;28;20373;-76
2022/05/20 07:41:19;;;;;;;9.27;6.95;;;16.80;99.90;;;;;;5075025;28;20094;-77
2022/05/20 07:43:49;;;;;;;11.40;7.73;;;16.70;99.90;;;;;;5075053;28;20044;-77
2022/05/20 07:46:14;;;;;;;10.23;6.93;;;16.60;99.90;;;;;;5040909;28;20076;-76
2022/05/20 07:48:40;;;;;;;9.65;7.30;;;16.60;99.90;;;;;;5057188;28;20449;-75
2022/05/20 07:51:11;;;;;;;11.82;8.48;;;16.60;99.90;;;;;;5074581;28;20067;-76
2022/05/20 07:53:42;;;;;;;11.82;7.72;;;16.50;99.90;;;;;;5074717;28;20055;-78
2022/05/20 07:56:20;;;;;;;11.48;7.90;;;16.60;99.90;;;;;;5074726;28;20056;-76
2022/05/20 07:59:14;;;;;;;11.00;6.97;;;16.70;99.90;;;;;;5074318;28;20044;-77
2022/05/20 08:01:45;;;;;;;12.45;8.57;;;16.90;99.90;;;;;;5071822;28;20477;-76
2022/05/20 08:07:04;;;;;;;11.95;8.80;;;17.20;99.90;;;;;;5058376;28;20099;-79
2022/05/20 08:09:31;;;;;;;14.02;9.50;;;17.30;99.90;;;;;;5058994;28;20071;-78
2022/05/20 08:11:57;;;;;;;14.32;8.93;;;17.30;99.90;;;;;;5057913;28;20106;-78
2022/05/20 08:14:26;;;;;;;9.73;7.57;;;17.40;99.90;;;;;;5056808;28;20357;-79
2022/05/20 08:16:52;;;;;;;12.70;7.20;;;17.50;99.90;;;;;;5051861;28;20049;-77
2022/05/20 08:19:18;;;;;;;11.63;7.60;;;17.60;99.90;;;;;;5056821;28;20426;-77
2022/05/20 08:21:43;;;;;;;12.73;7.43;;;17.50;99.90;;;;;;5056723;28;20171;-79
2022/05/20 08:24:09;;;;;;;11.75;8.02;;;17.50;99.90;;;;;;5055904;28;20123;-78
2022/05/20 08:26:35;;;;;;;9.40;8.38;;;17.50;99.90;;;;;;5074096;28;20057;-78
2022/05/20 08:29:01;;;;;;;12.32;8.35;;;17.60;99.90;;;;;;5056543;28;20042;-77
2022/05/20 08:31:27;;;;;;;14.52;9.77;;;17.70;99.90;;;;;;5073913;28;20346;-77
2022/05/20 08:33:53;;;;;;;13.32;9.80;;;17.80;99.90;;;;;;5071088;28;20051;-78
2022/05/20 08:36:19;;;;;;;13.77;10.43;;;17.80;99.90;;;;;;5056605;28;20373;-77
2022/05/20 08:38:47;;;;;;;12.43;9.68;;;17.80;99.90;;;;;;5074750;28;20158;-75
2022/05/20 08:41:27;;;;;;;14.10;9.25;;;17.90;99.90;;;;;;5074457;28;20054;-76
2022/05/20 08:43:53;;;;;;;10.25;8.18;;;18.00;99.90;;;;;;5074095;28;20086;-74
2022/05/20 08:46:21;;;;;;;11.40;8.35;;;18.10;99.90;;;;;;5074007;28;20079;-75
2022/05/20 08:48:52;;;;;;;14.13;9.23;;;18.20;99.90;;;;;;5074228;28;20115;-75
2022/05/20 08:51:19;;;;;;;14.05;8.48;;;18.30;99.90;;;;;;5074041;28;20047;-73
2022/05/20 08:53:47;;;;;;;11.38;8.55;;;18.40;99.90;;;;;;5056583;28;20140;-76
2022/05/20 08:56:19;;;;;;;11.50;9.68;;;18.50;99.90;;;;;;5056204;28;20477;-74
2022/05/20 08:58:59;;;;;;;11.80;10.05;;;18.60;99.90;;;;;;5073814;28;20044;-75
2022/05/20 09:01:32;;;;;;;13.18;9.43;;;18.70;99.90;;;;;;5073715;28;20036;-76
2022/05/20 09:03:59;;;;;;;14.73;9.63;;;18.90;99.90;;;;;;5073760;28;20564;-74
2022/05/20 09:06:25;;;;;;;10.82;9.02;;;19.00;99.90;;;;;;5073588;28;20044;-76
2022/05/20 09:09:09;;;;;;;10.98;8.23;;;19.20;99.90;;;;;;5073616;28;20358;-74
2022/05/20 09:11:35;;;;;;;10.82;8.15;;;19.10;99.90;;;;;;5073394;28;20442;-74
2022/05/20 09:17:18;;;;;;;13.40;8.30;;;18.90;99.90;;;;;;5088407;28;20044;-73
2022/05/20 09:20:03;;;;;;;10.35;8.52;;;18.70;99.90;;;;;;5082685;28;20044;-75
2022/05/20 09:22:35;;;;;;;14.32;10.48;;;18.60;99.90;;;;;;5073449;28;20412;-75
2022/05/20 09:25:03;;;;;;;14.35;10.23;;;18.60;99.90;;;;;;5055242;28;20063;-75
2022/05/20 09:27:32;;;;;;;13.77;10.70;;;18.60;99.90;;;;;;5073166;28;20128;-79
2022/05/20 09:30:06;;;;;;;12.82;9.65;;;18.60;99.90;;;;;;5073332;28;20131;-76
2022/05/20 09:32:58;;;;;;;10.80;9.43;;;18.50;99.90;;;;;;5073269;28;20044;-76
2022/05/20 09:35:30;;;;;;;12.15;10.77;;;18.30;99.90;;;;;;5054555;28;20066;-76
2022/05/20 09:37:56;;;;;;;11.32;9.70;;;18.20;99.90;;;;;;5055696;28;20052;-78
2022/05/20 09:40:41;;;;;;;14.43;11.02;;;18.20;99.90;;;;;;5055426;28;20051;-76
2022/05/20 09:43:21;;;;;;;12.02;10.70;;;18.20;99.90;;;;;;5061262;28;20063;-78
2022/05/20 09:45:49;;;;;;;12.23;9.85;;;18.10;99.90;;;;;;5068606;28;20054;-77
2022/05/20 09:48:36;;;;;;;13.80;10.88;;;18.10;99.90;;;;;;5055400;28;20456;-75
2022/05/20 09:51:14;;;;;;;14.02;10.75;;;18.20;99.90;;;;;;5072426;28;20131;-76
2022/05/20 09:53:42;;;;;;;13.45;10.63;;;18.20;99.90;;;;;;5055214;28;20036;-75
2022/05/20 09:56:30;;;;;;;13.25;10.45;;;18.10;99.90;;;;;;5054706;28;20044;-77
2022/05/20 09:59:06;;;;;;;13.38;11.95;;;18.10;99.90;;;;;;5072610;28;20084;-76
2022/05/20 10:01:32;;;;;;;13.85;12.20;;;18.20;99.90;;;;;;5072258;28;20048;-76
2022/05/20 10:04:03;;;;;;;13.80;11.93;;;18.30;99.90;;;;;;5072151;28;20051;-76
2022/05/20 10:06:40;;;;;;;12.27;10.45;;;18.40;99.90;;;;;;5071842;28;20047;-76
2022/05/20 10:09:25;;;;;;;13.82;10.90;;;18.50;99.90;;;;;;5071937;28;20048;-76
2022/05/20 10:11:54;;;;;;;15.18;11.60;;;18.40;99.90;;;;;;5054718;28;20101;-77
2022/05/20 10:14:27;;;;;;;15.27;10.40;;;18.30;99.90;;;;;;5054668;28;20044;-76
2022/05/20 10:17:00;;;;;;;13.40;11.13;;;18.30;99.90;;;;;;5071360;28;20040;-78
2022/05/20 10:19:48;;;;;;;12.82;11.15;;;18.20;99.90;;;;;;5071649;28;20040;-76
2022/05/20 10:22:45;;;;;;;15.52;11.13;;;18.20;99.90;;;;;;5054541;28;20052;-77
2022/05/20 10:25:44;;;;;;;15.02;11.45;;;18.30;99.90;;;;;;5071716;28;20044;-76
2022/05/20 10:34:16;;;;;;;11.60;10.20;;;18.50;99.90;;;;;;5054539;28;20095;-77
2022/05/20 10:37:24;;;;;;;13.30;8.77;;;18.60;99.90;;;;;;5071710;28;20427;-76
2022/05/20 10:40:15;;;;;;;8.82;6.75;;;18.80;99.90;;;;;;4955053;28;20047;-75
2022/05/20 10:42:54;;;;;;;11.70;8.48;;;18.90;99.90;;;;;;5050172;28;20462;-76
2022/05/20 10:48:41;;;;;;;9.10;7.60;;;19.00;99.90;;;;;;5075589;28;20087;-75
2022/05/20 10:51:10;;;;;;;11.48;8.75;;;19.00;99.90;;;;;;5075777;28;20437;-76
2022/05/20 10:54:03;;;;;;;14.98;8.02;;;19.10;99.90;;;;;;5075747;28;20048;-77
2022/05/20 10:56:39;;;;;;;10.75;7.10;;;19.10;99.90;;;;;;5057819;28;20060;-74
2022/05/20 10:59:20;;;;;;;10.15;7.70;;;19.20;99.90;;;;;;5075388;28;20462;-76
2022/05/20 11:01:58;;;;;;;10.40;8.50;;;19.30;99.90;;;;;;5058054;28;20094;-77
2022/05/20 11:04:52;;;;;;;12.18;8.93;;;19.40;99.90;;;;;;5075610;28;20079;-78
2022/05/20 11:07:20;;;;;;;11.10;8.63;;;19.50;99.90;;;;;;5075238;28;20507;-77
2022/05/20 11:10:07;;;;;;;11.60;7.57;;;19.70;99.90;;;;;;5057881;28;20131;-78
2022/05/20 11:13:00;;;;;;;11.75;7.45;;;19.80;99.90;;;;;;5075269;28;20043;-76
2022/05/20 11:15:35;;;;;;;9.50;6.40;;;19.90;99.90;;;;;;5057460;28;20092;-76
2022/05/20 11:18:06;;;;;;;10.65;7.22;;;20.10;99.90;;;;;;5075384;28;20048;-76
2022/05/20 11:20:51;;;;;;;9.75;6.88;;;20.10;99.90;;;;;;5057941;28;20136;-76
2022/05/20 11:23:39;;;;;;;9.48;6.38;;;20.00;99.90;;;;;;5057669;28;20056;-78
2022/05/20 11:26:23;;;;;;;9.02;6.13;;;20.10;99.90;;;;;;5057241;28;20053;-78
2022/05/20 11:29:02;;;;;;;6.32;5.43;;;20.10;99.90;;;;;;5057803;28;20123;-77
2022/05/20 11:31:46;;;;;;;11.80;5.37;;;20.30;99.90;;;;;;5075260;28;20052;-76
2022/05/20 11:34:41;;;;;;;6.22;4.43;;;20.40;99.90;;;;;;5074190;28;20421;-75
2022/05/20 11:37:44;;;;;;;6.75;5.38;;;20.60;99.90;;;;;;5045536;28;20044;-74
2022/05/20 11:40:18;;;;;;;6.75;5.20;;;20.70;99.80;;;;;;5057483;28;20044;-74
2022/05/20 11:42:56;;;;;;;6.47;4.75;;;20.80;98.10;;;;;;5057126;28;20059;-76
2022/05/20 11:45:47;;;;;;;7.18;4.15;;;20.80;98.30;;;;;;5057517;28;20463;-75
2022/05/20 11:48:25;;;;;;;7.13;2.58;;;20.80;96.80;;;;;;5057135;28;20428;-76
2022/05/20 11:51:02;;;;;;;7.68;4.13;;;20.70;94.90;;;;;;5074225;28;20084;-77
2022/05/20 11:53:47;;;;;;;7.55;4.32;;;20.60;93.80;;;;;;5083556;28;20094;-73
2022/05/20 11:56:34;;;;;;;6.75;4.40;;;20.60;95.30;;;;;;5082443;28;20044;-77
2022/05/20 11:59:23;;;;;;;8.68;4.78;;;20.60;94.70;;;;;;5056018;28;20052;-77
2022/05/20 12:01:53;;;;;;;6.40;4.55;;;20.60;94.60;;;;;;5074418;28;20059;-75
2022/05/20 12:04:24;;;;;;;7.18;4.20;;;20.60;96.10;;;;;;5057286;28;20419;-76
2022/05/20 12:06:59;;;;;;;6.38;4.07;;;20.70;96.40;;;;;;5074105;28;20098;-77
2022/05/20 12:09:45;;;;;;;6.97;4.00;;;20.70;94.80;;;;;;5074247;28;20049;-76
2022/05/20 12:12:40;;;;;;;6.22;3.92;;;20.70;93.50;;;;;;5074337;28;20093;-78
2022/05/20 12:15:12;;;;;;;6.47;4.03;;;20.70;93.70;;;;;;5052055;28;20475;-76
2022/05/20 12:17:44;;;;;;;6.78;4.10;;;20.80;93.70;;;;;;5054096;28;20076;-76
2022/05/20 12:25:52;;;;;;;6.18;3.50;;;21.00;91.50;;;;;;5037082;28;20044;-77
2022/05/20 12:28:20;;;;;;;4.60;2.80;;;21.30;91.30;;;;;;5053730;28;20053;-78
2022/05/20 12:31:08;;;;;;;5.13;2.92;;;21.50;90.30;;;;;;5036402;28;20099;-76
2022/05/20 12:33:56;;;;;;;7.57;3.22;;;21.50;87.00;;;;;;5053879;28;20029;-75
2022/05/20 12:36:24;;;;;;;5.07;3.35;;;21.60;86.80;;;;;;5047097;28;20397;-76
2022/05/20 12:38:51;;;;;;;7.00;4.75;;;21.60;88.10;;;;;;5071673;28;20132;-77
2022/05/20 12:41:38;;;;;;;7.57;4.80;;;21.50;87.40;;;;;;5056761;28;20441;-75
2022/05/20 12:44:16;;;;;;;8.20;4.45;;;21.40;87.30;;;;;;5056298;28;20044;-76
2022/05/20 12:47:06;;;;;;;6.60;4.93;;;21.40;81.40;;;;;;5055989;28;20487;-77
2022/05/20 12:49:44;;;;;;;7.63;5.68;;;21.20;83.20;;;;;;5073942;28;20040;-78
2022/05/20 12:52:29;;;;;;;9.80;5.22;;;20.90;85.40;;;;;;5056283;28;20488;-77
2022/05/20 12:55:24;;;;;;;7.97;5.00;;;20.60;88.30;;;;;;5056079;28;20048;-75
2022/05/20 12:57:56;;;;;;;7.97;5.32;;;20.30;87.80;;;;;;5073294;28;20113;-78
2022/05/20 13:00:28;;;;;;;7.50;5.00;;;20.10;89.20;;;;;;5073597;28;20408;-78
2022/05/20 13:03:00;;;;;;;8.07;5.20;;;19.90;90.00;;;;;;5074657;28;20637;-75
2022/05/20 13:05:47;;;;;;;8.30;5.90;;;19.80;91.10;;;;;;5073604;28;20055;-74
2022/05/20 13:08:17;;;;;;;7.25;5.78;;;19.60;91.80;;;;;;5072995;28;20040;-76
2022/05/20 13:10:43;;;;;;;7.43;6.72;;;19.50;92.10;;;;;;5055707;28;20060;-78
2022/05/20 13:13:12;;;;;;;6.78;5.97;;;19.40;92.70;;;;;;5073014;28;20045;-76
2022/05/20 13:15:49;;;;;;;6.20;5.40;;;19.30;92.50;;;;;;5055388;28;20036;-77
2022/05/20 13:18:19;;;;;;;7.82;5.30;;;19.30;92.80;;;;;;5055685;28;20061;-77
2022/05/20 13:20:47;;;;;;;7.03;5.35;;;19.10;92.40;;;;;;5072902;28;20466;-77
2022/05/20 13:23:25;;;;;;;7.30;4.80;;;18.90;92.10;;;;;;5073463;28;20040;-75
2022/05/20 13:25:51;;;;;;;7.35;5.80;;;18.80;91.60;;;;;;5072699;28;20064;-76
2022/05/20 13:28:31;;;;;;;6.70;5.32;;;18.60;91.80;;;;;;5072878;28;20369;-76
2022/05/20 13:31:04;;;;;;;8.13;5.88;;;18.40;93.10;;;;;;5055417;28;20048;-78
2022/05/20 13:33:31;;;;;;;8.10;6.57;;;18.30;93.40;;;;;;5072843;28;20040;-76
2022/05/20 13:35:59;;;;;;;11.88;7.47;;;18.20;94.70;;;;;;5055512;28;20123;-77
2022/05/20 13:38:28;;;;;;;9.27;8.38;;;18.00;97.70;;;;;;5072817;28;20052;-75